createdAt,value
2022-08-07T00:02:35.297Z,23.17
2022-08-07T00:04:04.350Z,32.10
2022-08-07T00:06:33.690Z,29.58
2022-08-07T00:09:16.300Z,21.60
2022-08-07T00:11:54.206Z,23.83
2022-08-07T00:14:25.178Z,26.45
2022-08-07T00:16:52.244Z,21.77
2022-08-07T00:19:21.564Z,25.42
2022-08-07T00:21:56.979Z,24.98
2022-08-07T00:27:07.328Z,24.60
2022-08-07T00:29:34.407Z,23.48
2022-08-07T00:32:05.797Z,21.88
2022-08-07T00:34:32.626Z,25.05
2022-08-07T00:37:02.086Z,22.43
2022-08-07T00:39:31.566Z,27.03
2022-08-07T00:42:01.936Z,26.88
2022-08-07T00:44:31.202Z,22.25
2022-08-07T00:46:59.766Z,24.02
2022-08-07T00:50:20.037Z,23.23
2022-08-07T00:52:12.685Z,21.75
2022-08-07T00:54:40.617Z,28.60
2022-08-07T00:57:09.025Z,26.13
2022-08-07T00:59:36.697Z,22.40
2022-08-07T01:02:08.947Z,22.88
2022-08-07T01:04:43.171Z,22.52
2022-08-07T01:07:10.795Z,25.52
2022-08-07T01:10:07.211Z,27.23
2022-08-07T01:12:30.243Z,24.73
2022-08-07T01:15:01.738Z,26.42
2022-08-07T01:17:31.942Z,23.90
2022-08-07T01:20:16.994Z,24.25
2022-08-07T01:22:54.036Z,27.60
2022-08-07T01:25:40.338Z,26.55
2022-08-07T01:28:15.554Z,23.95
2022-08-07T01:30:42.550Z,27.20
2022-08-07T01:33:09.053Z,24.70
2022-08-07T01:35:52.916Z,28.50
2022-08-07T01:38:25.241Z,24.25
2022-08-07T01:40:55.038Z,26.45
2022-08-07T01:43:22.720Z,31.40
2022-08-07T01:45:54.418Z,24.75
2022-08-07T01:48:29.719Z,23.00
2022-08-07T01:51:24.727Z,26.35
2022-08-07T01:54:09.591Z,25.05
2022-08-07T01:56:53.514Z,25.33
2022-08-07T01:59:43.952Z,27.20
2022-08-07T02:02:33.001Z,25.33
2022-08-07T02:05:09.244Z,26.38
2022-08-07T02:07:51.217Z,25.58
2022-08-07T02:10:23.936Z,26.52
2022-08-07T02:12:51.206Z,25.35
2022-08-07T02:15:25.432Z,35.70
2022-08-07T02:17:56.429Z,25.48
2022-08-07T02:20:24.672Z,25.98
2022-08-07T02:23:01.729Z,27.92
2022-08-07T02:26:10.275Z,26.92
2022-08-07T02:28:24.786Z,27.23
2022-08-07T02:30:54.995Z,25.60
2022-08-07T02:33:24.833Z,25.95
2022-08-07T02:36:29.408Z,28.85
2022-08-07T02:39:01.480Z,25.65
2022-08-07T02:41:33.493Z,29.30
2022-08-07T02:44:04.509Z,27.35
2022-08-07T02:46:33.658Z,27.75
2022-08-07T02:49:05.404Z,28.02
2022-08-07T02:51:42.602Z,28.45
2022-08-07T02:54:20.303Z,30.85
2022-08-07T02:59:18.843Z,26.25
2022-08-07T03:01:52.127Z,30.27
2022-08-07T03:04:23.116Z,31.10
2022-08-07T03:06:52.424Z,29.85
2022-08-07T03:09:42.386Z,32.65
2022-08-07T03:12:11.573Z,30.42
2022-08-07T03:14:52.423Z,33.42
2022-08-07T03:17:19.906Z,31.48
2022-08-07T03:19:52.174Z,30.55
2022-08-07T03:22:24.317Z,30.90
2022-08-07T03:24:57.313Z,31.25
2022-08-07T03:27:30.752Z,32.03
2022-08-07T03:30:10.714Z,29.95
2022-08-07T03:32:49.144Z,31.63
2022-08-07T03:35:27.524Z,30.13
2022-08-07T03:38:13.210Z,30.70
2022-08-07T03:40:40.211Z,31.08
2022-08-07T03:43:14.645Z,30.98
2022-08-07T03:48:14.886Z,29.95
2022-08-07T03:50:55.911Z,31.60
2022-08-07T03:54:02.068Z,31.33
2022-08-07T03:56:14.334Z,31.63
2022-08-07T03:59:08.093Z,32.17
2022-08-07T04:01:30.088Z,32.63
2022-08-07T04:03:58.890Z,32.70
2022-08-07T04:06:36.378Z,32.55
2022-08-07T04:09:06.501Z,32.90
2022-08-07T04:12:26.912Z,34.33
2022-08-07T04:14:38.798Z,35.00
2022-08-07T04:17:20.583Z,36.67
2022-08-07T04:19:52.309Z,36.17
2022-08-07T04:22:23.685Z,36.30
2022-08-07T04:24:58.007Z,38.03
2022-08-07T04:27:25.768Z,36.40
2022-08-07T04:30:02.360Z,36.03
2022-08-07T04:32:34.751Z,36.63
2022-08-07T04:35:07.099Z,37.42
2022-08-07T04:37:52.825Z,38.65
2022-08-07T04:40:26.683Z,36.70
2022-08-07T04:43:01.387Z,37.70
2022-08-07T04:45:57.798Z,37.05
2022-08-07T04:48:28.382Z,37.78
2022-08-07T04:51:16.075Z,37.47
2022-08-07T04:54:09.411Z,38.53
2022-08-07T04:58:10.084Z,37.72
2022-08-07T05:00:14.506Z,36.90
2022-08-07T05:02:43.527Z,37.33
2022-08-07T05:05:52.538Z,38.83
2022-08-07T05:08:59.502Z,40.83
2022-08-07T05:11:24.320Z,39.03
2022-08-07T05:14:56.444Z,40.83
2022-08-07T05:17:00.587Z,38.50
2022-08-07T05:19:44.838Z,41.58
2022-08-07T05:22:26.559Z,41.87
2022-08-07T05:24:57.143Z,44.15
2022-08-07T05:28:16.957Z,45.92
2022-08-07T05:30:25.097Z,49.45
2022-08-07T05:32:58.724Z,47.58
2022-08-07T05:35:33.906Z,48.50
2022-08-07T05:38:09.858Z,47.35
2022-08-07T05:40:50.413Z,43.55
2022-08-07T05:43:19.349Z,45.03
2022-08-07T05:46:06.211Z,46.05
2022-08-07T05:48:32.838Z,44.25
2022-08-07T05:51:03.438Z,41.90
2022-08-07T05:54:09.597Z,39.43
2022-08-07T05:56:28.355Z,38.90
2022-08-07T05:58:58.386Z,36.38
2022-08-07T06:01:27.499Z,36.30
2022-08-07T06:04:04.256Z,35.33
2022-08-07T06:06:32.898Z,31.92
2022-08-07T06:09:01.083Z,31.85
2022-08-07T06:11:32.744Z,29.58
2022-08-07T06:14:12.957Z,27.83
2022-08-07T06:16:50.774Z,25.92
2022-08-07T06:19:51.775Z,26.55
2022-08-07T06:22:22.834Z,21.90
2022-08-07T06:24:58.435Z,22.10
2022-08-07T06:27:43.984Z,19.52
2022-08-07T06:30:32.214Z,18.90
2022-08-07T06:33:04.098Z,20.58
2022-08-07T06:35:45.476Z,17.25
2022-08-07T06:38:20.525Z,15.90
2022-08-07T06:40:53.263Z,19.63
2022-08-07T06:43:22.441Z,16.38
2022-08-07T06:45:50.524Z,16.50
2022-08-07T06:48:24.779Z,16.73
2022-08-07T06:50:54.219Z,16.20
2022-08-07T06:55:30.084Z,15.65
2022-08-07T06:56:15.343Z,14.60
2022-08-07T07:00:14.422Z,14.75
2022-08-07T07:01:43.858Z,14.52
2022-08-07T07:04:28.579Z,15.25
2022-08-07T07:07:01.845Z,15.02
2022-08-07T07:09:31.167Z,15.80
2022-08-07T07:12:18.104Z,14.90
2022-08-07T07:14:48.080Z,15.70
2022-08-07T07:17:45.491Z,13.95
2022-08-07T07:20:25.734Z,13.90
2022-08-07T07:24:06.074Z,15.02
2022-08-07T07:26:35.115Z,14.00
2022-08-07T07:28:48.611Z,15.18
2022-08-07T07:31:39.815Z,16.88
2022-08-07T07:34:10.345Z,14.07
2022-08-07T07:36:48.027Z,13.70
2022-08-07T07:39:22.105Z,12.95
2022-08-07T07:42:09.033Z,13.38
2022-08-07T07:44:41.972Z,12.63
2022-08-07T07:47:22.959Z,13.00
2022-08-07T07:50:36.179Z,14.73
2022-08-07T07:52:40.991Z,14.07
2022-08-07T07:55:10.922Z,13.82
2022-08-07T07:57:52.434Z,15.25
2022-08-07T08:00:31.577Z,12.98
2022-08-07T08:03:09.435Z,15.38
2022-08-07T08:05:55.045Z,13.30
2022-08-07T08:08:35.584Z,13.90
2022-08-07T08:11:08.106Z,13.30
2022-08-07T08:13:53.136Z,15.18
2022-08-07T08:16:30.021Z,13.80
2022-08-07T08:19:00.406Z,13.50
2022-08-07T08:22:03.062Z,14.00
2022-08-07T08:25:04.534Z,13.00
2022-08-07T08:27:43.955Z,12.98
2022-08-07T08:30:23.387Z,13.25
2022-08-07T08:32:59.469Z,12.65
2022-08-07T08:35:39.108Z,13.20
2022-08-07T08:38:13.000Z,14.35
2022-08-07T08:40:46.783Z,14.07
2022-08-07T08:43:42.359Z,13.10
2022-08-07T08:46:28.876Z,16.15
2022-08-07T08:49:09.880Z,12.73
2022-08-07T08:52:01.109Z,13.15
2022-08-07T08:54:41.487Z,12.63
2022-08-07T08:57:19.418Z,12.10
2022-08-07T08:59:53.762Z,12.60
2022-08-07T09:02:42.106Z,13.05
2022-08-07T09:05:32.001Z,13.43
2022-08-07T09:08:28.668Z,12.52
2022-08-07T09:11:05.860Z,13.10
2022-08-07T09:13:46.291Z,12.17
2022-08-07T09:16:29.890Z,12.70
2022-08-07T09:19:51.047Z,13.20
2022-08-07T09:24:31.728Z,12.00
2022-08-07T09:25:26.751Z,11.38
2022-08-07T09:30:01.889Z,11.75
2022-08-07T09:31:08.502Z,11.52
2022-08-07T09:33:56.840Z,11.23
2022-08-07T09:36:28.566Z,11.65
2022-08-07T09:39:18.115Z,11.57
2022-08-07T09:42:09.251Z,12.40
2022-08-07T09:47:51.294Z,11.98
2022-08-07T09:48:14.653Z,11.70
2022-08-07T09:51:14.539Z,11.65
2022-08-07T09:54:03.782Z,9.88
2022-08-07T09:56:54.864Z,10.55
2022-08-07T10:00:00.946Z,10.60
2022-08-07T10:02:55.397Z,10.80
2022-08-07T10:06:00.748Z,11.25
2022-08-07T10:09:06.513Z,11.63
2022-08-07T10:12:19.831Z,10.88
2022-08-07T10:14:55.105Z,11.50
2022-08-07T10:18:02.547Z,21.88
2022-08-07T10:20:58.903Z,9.90
2022-08-07T10:24:05.311Z,10.23
2022-08-07T10:27:11.215Z,11.80
2022-08-07T10:29:46.013Z,11.50
2022-08-07T10:32:59.469Z,11.85
2022-08-07T10:36:18.841Z,11.45
2022-08-07T10:41:47.151Z,11.63
2022-08-07T10:44:38.265Z,11.95
2022-08-07T10:47:26.967Z,11.80
2022-08-07T10:50:16.938Z,12.80
2022-08-07T10:52:51.820Z,11.48
2022-08-07T10:55:37.971Z,10.90
2022-08-07T10:58:31.926Z,11.25
2022-08-07T11:01:25.452Z,11.70
2022-08-07T11:04:31.480Z,11.13
2022-08-07T11:07:24.838Z,10.73
2022-08-07T11:10:09.922Z,10.50
2022-08-07T11:13:01.623Z,11.25
2022-08-07T11:15:34.172Z,10.90
2022-08-07T11:18:13.391Z,11.45
2022-08-07T11:20:58.830Z,10.18
2022-08-07T11:23:48.438Z,10.38
2022-08-07T11:26:38.561Z,10.05
2022-08-07T11:29:41.249Z,10.23
2022-08-07T11:32:26.117Z,9.73
2022-08-07T11:34:59.563Z,9.45
2022-08-07T11:37:57.880Z,10.30
2022-08-07T11:41:04.028Z,10.10
2022-08-07T11:44:18.674Z,10.07
2022-08-07T11:47:10.404Z,9.68
2022-08-07T11:50:31.322Z,10.15
2022-08-07T11:53:09.738Z,9.98
2022-08-07T11:56:24.767Z,9.60
2022-08-07T11:59:00.926Z,10.50
2022-08-07T12:01:59.591Z,10.02
2022-08-07T12:04:43.004Z,13.43
2022-08-07T12:07:39.171Z,10.00
2022-08-07T12:10:19.484Z,9.70
2022-08-07T12:13:00.630Z,10.85
2022-08-07T12:15:35.865Z,10.65
2022-08-07T12:18:45.401Z,9.98
2022-08-07T12:21:55.127Z,9.90
2022-08-07T12:24:38.367Z,10.63
2022-08-07T12:27:18.564Z,9.98
2022-08-07T12:30:02.147Z,9.77
2022-08-07T12:32:38.644Z,9.27
2022-08-07T12:35:09.394Z,9.63
2022-08-07T12:38:10.675Z,9.60
2022-08-07T12:44:03.617Z,12.10
2022-08-07T12:46:32.289Z,9.38
2022-08-07T12:49:39.823Z,9.90
2022-08-07T12:52:13.753Z,9.98
2022-08-07T12:55:05.286Z,9.88
2022-08-07T12:57:39.224Z,9.30
2022-08-07T13:00:41.647Z,9.95
2022-08-07T13:03:22.969Z,9.73
2022-08-07T13:06:27.281Z,10.05
2022-08-07T13:10:18.963Z,9.93
2022-08-07T13:12:10.091Z,8.98
2022-08-07T13:15:01.753Z,9.60
2022-08-07T13:17:43.868Z,10.32
2022-08-07T13:20:38.476Z,9.15
2022-08-07T13:24:02.051Z,9.60
2022-08-07T13:26:18.180Z,9.30
2022-08-07T13:28:58.939Z,9.45
2022-08-07T13:32:23.572Z,9.82
2022-08-07T13:35:11.773Z,9.45
2022-08-07T13:37:55.608Z,9.45
2022-08-07T13:40:35.413Z,9.30
2022-08-07T13:43:12.301Z,9.98
2022-08-07T13:46:11.958Z,9.80
2022-08-07T13:48:34.143Z,9.45
2022-08-07T13:51:27.637Z,9.50
2022-08-07T13:54:00.501Z,10.35
2022-08-07T13:56:35.376Z,9.82
2022-08-07T13:59:13.046Z,10.38
2022-08-07T14:02:05.262Z,9.88
2022-08-07T14:04:35.655Z,9.35
2022-08-07T14:07:09.791Z,8.75
2022-08-07T14:10:17.420Z,9.73
2022-08-07T14:12:36.274Z,9.52
2022-08-07T14:15:11.506Z,9.65
2022-08-07T14:18:23.540Z,9.80
2022-08-07T14:20:43.381Z,9.40
2022-08-07T14:23:31.426Z,9.85
2022-08-07T14:26:28.185Z,9.68
2022-08-07T14:29:04.455Z,9.07
2022-08-07T14:31:42.972Z,9.45
2022-08-07T14:34:29.226Z,10.07
2022-08-07T14:37:04.073Z,9.15
2022-08-07T14:40:15.987Z,9.27
2022-08-07T14:42:27.538Z,9.18
2022-08-07T14:45:21.996Z,9.23
2022-08-07T14:47:49.156Z,8.52
2022-08-07T14:50:19.792Z,8.65
2022-08-07T14:52:47.877Z,9.05
2022-08-07T14:55:18.125Z,8.88
2022-08-07T15:00:39.434Z,8.85
2022-08-07T15:03:19.439Z,8.80
2022-08-07T15:05:54.635Z,8.57
2022-08-07T15:08:47.575Z,9.02
2022-08-07T15:14:16.559Z,9.70
2022-08-07T15:20:30.201Z,9.60
2022-08-07T15:25:17.916Z,9.38
2022-08-07T15:28:33.040Z,9.27
2022-08-07T15:30:59.441Z,9.90
2022-08-07T15:33:33.670Z,9.13
2022-08-07T15:36:05.705Z,9.02
2022-08-07T15:38:58.765Z,8.63
2022-08-07T15:42:45.844Z,8.82
2022-08-07T15:44:15.001Z,8.95
2022-08-07T15:50:04.951Z,8.60
2022-08-07T15:52:30.265Z,9.05
2022-08-07T15:55:02.857Z,8.13
2022-08-07T15:57:40.120Z,8.45
2022-08-07T16:00:31.062Z,9.20
2022-08-07T16:03:03.021Z,9.88
2022-08-07T16:05:31.532Z,10.02
2022-08-07T16:08:32.378Z,9.40
2022-08-07T16:11:02.532Z,9.48
2022-08-07T16:13:59.009Z,8.75
2022-08-07T16:17:14.948Z,9.10
2022-08-07T16:20:33.899Z,8.93
2022-08-07T16:23:12.115Z,9.13
2022-08-07T16:25:54.405Z,9.63
2022-08-07T16:30:06.617Z,9.70
2022-08-07T16:32:02.490Z,8.82
2022-08-07T16:34:50.953Z,9.55
2022-08-07T16:38:06.753Z,9.90
2022-08-07T16:41:13.872Z,9.07
2022-08-07T16:44:47.561Z,10.27
2022-08-07T16:47:15.864Z,9.68
2022-08-07T16:50:35.492Z,9.52
2022-08-07T16:53:47.868Z,9.80
2022-08-07T16:56:30.431Z,9.15
2022-08-07T16:59:21.584Z,9.30
2022-08-07T17:02:06.725Z,9.80
2022-08-07T17:04:58.837Z,10.23
2022-08-07T17:07:55.900Z,9.75
2022-08-07T17:10:33.191Z,9.45
2022-08-07T17:13:40.340Z,9.80
2022-08-07T17:16:33.236Z,9.50
2022-08-07T17:20:02.106Z,10.25
2022-08-07T17:22:43.393Z,9.30
2022-08-07T17:25:20.125Z,9.55
2022-08-07T17:28:19.672Z,9.25
2022-08-07T17:31:16.559Z,11.57
2022-08-07T17:34:19.831Z,11.23
2022-08-07T17:36:57.683Z,10.30
2022-08-07T17:39:53.157Z,9.70
2022-08-07T17:42:59.203Z,10.88
2022-08-07T17:45:36.276Z,11.82
2022-08-07T17:48:12.764Z,12.20
2022-08-07T17:51:21.487Z,11.57
2022-08-07T17:54:29.651Z,11.07
2022-08-07T17:57:25.037Z,12.00
2022-08-07T18:00:32.742Z,11.35
2022-08-07T18:04:03.617Z,10.63
2022-08-07T18:06:38.423Z,10.93
2022-08-07T18:09:08.761Z,11.00
2022-08-07T18:12:28.721Z,10.70
2022-08-07T18:15:10.842Z,10.00
2022-08-07T18:18:45.478Z,10.25
2022-08-07T18:21:40.209Z,10.32
2022-08-07T18:24:33.938Z,11.25
2022-08-07T18:27:39.821Z,10.13
2022-08-07T18:30:30.729Z,10.40
2022-08-07T18:33:36.583Z,10.80
2022-08-07T18:36:33.001Z,10.60
2022-08-07T18:40:06.373Z,10.55
2022-08-07T18:42:27.790Z,10.40
2022-08-07T18:45:44.923Z,10.70
2022-08-07T18:50:05.072Z,10.93
2022-08-07T18:52:38.867Z,11.25
2022-08-07T18:54:39.400Z,12.27
2022-08-07T18:57:30.963Z,11.52
2022-08-07T19:00:34.241Z,11.68
2022-08-07T19:03:15.921Z,11.27
2022-08-07T19:06:01.891Z,11.40
2022-08-07T19:08:46.539Z,11.20
2022-08-07T19:11:35.561Z,12.80
2022-08-07T19:14:17.361Z,11.77
2022-08-07T19:17:07.073Z,11.10
2022-08-07T19:20:06.805Z,13.40
2022-08-07T19:23:18.950Z,11.27
2022-08-07T19:26:23.164Z,11.80
2022-08-07T19:30:54.779Z,11.95
2022-08-07T19:32:07.918Z,11.73
2022-08-07T19:34:32.374Z,11.75
2022-08-07T19:37:10.035Z,11.85
2022-08-07T19:39:57.211Z,11.95
2022-08-07T19:42:26.965Z,11.93
2022-08-07T19:45:08.557Z,14.48
2022-08-07T19:47:41.868Z,11.35
2022-08-07T19:50:41.450Z,12.05
2022-08-07T19:52:58.358Z,12.90
2022-08-07T19:55:57.369Z,12.63
2022-08-07T19:58:15.950Z,12.15
2022-08-07T20:00:53.859Z,15.48
2022-08-07T20:03:35.613Z,16.43
2022-08-07T20:06:05.037Z,13.85
2022-08-07T20:08:36.827Z,13.93
2022-08-07T20:11:09.916Z,15.88
2022-08-07T20:13:53.479Z,12.07
2022-08-07T20:16:35.277Z,11.85
2022-08-07T20:19:05.970Z,12.43
2022-08-07T20:21:41.692Z,12.57
2022-08-07T20:24:21.093Z,15.52
2022-08-07T20:26:52.355Z,12.63
2022-08-07T20:29:46.773Z,14.82
2022-08-07T20:32:22.617Z,13.23
2022-08-07T20:34:55.908Z,13.93
2022-08-07T20:37:36.980Z,13.10
2022-08-07T20:40:32.666Z,13.10
2022-08-07T20:43:02.830Z,15.13
2022-08-07T20:46:27.011Z,13.73
2022-08-07T20:48:29.698Z,12.77
2022-08-07T20:51:00.144Z,12.77
2022-08-07T20:54:02.776Z,12.57
2022-08-07T20:56:16.548Z,12.45
2022-08-07T20:58:53.151Z,12.90
2022-08-07T21:01:20.958Z,13.93
2022-08-07T21:04:18.741Z,13.70
2022-08-07T21:06:42.419Z,12.63
2022-08-07T21:09:17.403Z,14.02
2022-08-07T21:11:55.656Z,13.52
2022-08-07T21:14:33.080Z,14.18
2022-08-07T21:18:00.658Z,13.57
2022-08-07T21:20:01.053Z,14.17
2022-08-07T21:22:34.472Z,13.18
2022-08-07T21:25:19.287Z,13.98
2022-08-07T21:27:47.043Z,14.52
2022-08-07T21:30:16.664Z,12.88
2022-08-07T21:33:11.717Z,13.45
2022-08-07T21:36:06.664Z,13.40
2022-08-07T21:39:01.608Z,14.57
2022-08-07T21:42:37.797Z,14.60
2022-08-07T21:46:03.207Z,15.95
2022-08-07T21:48:07.558Z,14.40
2022-08-07T21:51:04.938Z,13.35
2022-08-07T21:53:46.417Z,13.30
2022-08-07T21:56:47.764Z,13.70
2022-08-07T22:00:03.971Z,18.27
2022-08-07T22:02:46.416Z,13.77
2022-08-07T22:05:43.909Z,13.85
2022-08-07T22:08:10.490Z,14.20
2022-08-07T22:10:38.612Z,13.77
2022-08-07T22:13:14.332Z,14.00
2022-08-07T22:16:43.509Z,13.02
2022-08-07T22:18:54.441Z,12.95
2022-08-07T22:22:05.230Z,13.45
2022-08-07T22:24:32.849Z,14.90
2022-08-07T22:27:12.370Z,13.60
2022-08-07T22:30:02.067Z,13.20
2022-08-07T22:32:55.953Z,14.35
2022-08-07T22:35:24.882Z,14.55
2022-08-07T22:38:51.859Z,14.95
2022-08-07T22:41:29.198Z,13.80
2022-08-07T22:44:18.690Z,17.67
2022-08-07T22:47:03.452Z,14.35
2022-08-07T22:49:51.813Z,15.18
2022-08-07T22:52:43.465Z,15.20
2022-08-07T22:56:04.737Z,14.15
2022-08-07T22:58:40.591Z,14.60
2022-08-07T23:01:49.348Z,14.60
2022-08-07T23:04:57.874Z,13.98
2022-08-07T23:08:22.559Z,13.45
2022-08-07T23:14:24.680Z,13.25
2022-08-07T23:17:29.529Z,14.55
2022-08-07T23:20:51.300Z,13.73
2022-08-07T23:24:05.568Z,16.00
2022-08-07T23:26:54.803Z,16.30
2022-08-07T23:30:37.308Z,15.45
2022-08-07T23:34:36.358Z,16.38
2022-08-07T23:36:22.946Z,14.65
2022-08-07T23:39:14.426Z,14.65
2022-08-07T23:42:04.604Z,14.88
2022-08-07T23:45:03.114Z,13.98
2022-08-07T23:47:42.201Z,14.95
2022-08-07T23:50:34.411Z,15.40
2022-08-07T23:53:17.559Z,14.93
2022-08-07T23:56:11.955Z,15.80
2022-08-07T23:58:57.686Z,14.85
